Time;durP1;ratioP1;P1;durP2;ratioP2;P2;SDS_P1;SDS_P2;PMS_P1;PMS_P2;Temp;Humidity;BMP_temperature;BMP_pressure;BME280_temperature;BME280_humidity;BME280_pressure;Samples;Min_cycle;Max_cycle;Signal;HPM_P1;HPM_P2
2021/11/15 00:02:09;;;;;;;16.60;6.45;;;9.90;99.90;;;;;;6240317;22;20000;-62
2021/11/15 00:04:36;;;;;;;12.10;5.53;;;9.90;99.90;;;;;;6239100;22;20019;-63
2021/11/15 00:07:03;;;;;;;13.60;5.40;;;10.00;99.90;;;;;;6240365;22;20035;-62
2021/11/15 00:09:29;;;;;;;13.85;5.78;;;9.90;99.90;;;;;;6238076;22;20012;-63
2021/11/15 00:11:54;;;;;;;16.02;6.13;;;9.90;99.90;;;;;;6240364;22;20008;-62
2021/11/15 00:14:20;;;;;;;11.20;4.82;;;10.00;99.90;;;;;;6240348;22;20036;-62
2021/11/15 00:16:46;;;;;;;12.57;5.55;;;9.90;99.90;;;;;;6237366;22;20094;-62
2021/11/15 00:19:12;;;;;;;13.25;6.45;;;9.90;99.90;;;;;;6240425;22;20066;-63
2021/11/15 00:21:38;;;;;;;11.77;5.38;;;9.90;99.90;;;;;;6239111;22;20014;-62
2021/11/15 00:24:04;;;;;;;10.90;4.82;;;9.90;99.90;;;;;;6240329;22;20028;-62
2021/11/15 00:26:30;;;;;;;12.52;5.63;;;10.00;99.90;;;;;;6239332;22;20655;-63
2021/11/15 00:28:56;;;;;;;11.88;5.35;;;10.00;99.90;;;;;;6240870;22;20004;-62
2021/11/15 00:31:24;;;;;;;10.73;4.72;;;9.90;99.90;;;;;;6241853;22;20027;-61
2021/11/15 00:33:50;;;;;;;13.35;5.85;;;9.90;99.90;;;;;;6241193;22;20012;-62
2021/11/15 00:36:15;;;;;;;11.85;5.45;;;9.80;99.90;;;;;;6240468;23;20353;-63
2021/11/15 00:38:41;;;;;;;15.05;6.40;;;9.80;99.90;;;;;;6241160;22;20346;-62
2021/11/15 00:41:07;;;;;;;14.82;6.93;;;9.80;99.90;;;;;;6240175;22;20087;-62
2021/11/15 00:43:32;;;;;;;14.40;6.18;;;9.80;99.90;;;;;;6241127;22;20446;-62
2021/11/15 00:45:58;;;;;;;12.27;5.50;;;9.80;99.90;;;;;;6241952;22;20008;-61
2021/11/15 00:48:23;;;;;;;12.00;4.72;;;9.80;99.90;;;;;;6242261;22;20498;-63
2021/11/15 00:50:49;;;;;;;12.25;4.97;;;9.80;99.90;;;;;;6240238;22;20012;-62
2021/11/15 00:53:15;;;;;;;12.95;5.90;;;9.80;99.90;;;;;;6241974;22;20323;-62
2021/11/15 00:55:40;;;;;;;10.30;5.07;;;9.80;99.90;;;;;;6240323;22;20040;-62
2021/11/15 00:58:06;;;;;;;10.77;5.13;;;9.80;99.90;;;;;;6241954;22;20059;-63
2021/11/15 01:00:34;;;;;;;11.32;5.15;;;9.80;99.90;;;;;;6240032;22;20004;-61
2021/11/15 01:03:06;;;;;;;12.82;5.60;;;9.80;99.90;;;;;;6241383;22;20470;-62
2021/11/15 01:05:32;;;;;;;10.00;4.82;;;9.80;99.90;;;;;;6240681;22;20070;-63
2021/11/15 01:07:57;;;;;;;12.55;5.60;;;9.80;99.90;;;;;;6242009;22;20019;-62
2021/11/15 01:10:23;;;;;;;12.82;5.43;;;9.80;99.90;;;;;;6241994;22;20008;-62
2021/11/15 01:12:49;;;;;;;13.10;5.05;;;9.80;99.90;;;;;;6240522;22;20083;-63
2021/11/15 01:15:18;;;;;;;13.27;6.10;;;9.80;99.90;;;;;;6241329;22;20485;-62
2021/11/15 01:17:45;;;;;;;16.27;5.80;;;9.70;99.90;;;;;;6240791;22;20008;-62
2021/11/15 01:20:13;;;;;;;11.32;4.97;;;9.80;99.90;;;;;;6241773;22;20005;-63
2021/11/15 01:22:39;;;;;;;12.95;5.72;;;9.80;99.90;;;;;;6240920;22;20343;-62
2021/11/15 01:25:06;;;;;;;16.17;5.70;;;9.80;99.90;;;;;;6239830;23;20019;-61
2021/11/15 01:27:32;;;;;;;9.95;5.00;;;9.80;99.90;;;;;;6238910;22;20772;-62
2021/11/15 01:29:58;;;;;;;11.15;5.40;;;9.80;99.90;;;;;;6239595;22;20035;-62
2021/11/15 01:32:23;;;;;;;11.95;5.10;;;9.70;99.90;;;;;;6241557;22;20053;-62
2021/11/15 01:34:50;;;;;;;11.63;5.22;;;9.70;99.90;;;;;;6240510;22;20004;-62
2021/11/15 01:37:16;;;;;;;10.75;4.88;;;9.70;99.90;;;;;;6241818;22;20008;-62
2021/11/15 01:39:41;;;;;;;10.98;4.97;;;9.70;99.90;;;;;;6240305;22;20324;-62
2021/11/15 01:42:08;;;;;;;10.93;5.03;;;9.70;99.90;;;;;;6241540;22;20012;-62
2021/11/15 01:44:34;;;;;;;11.80;5.13;;;9.70;99.90;;;;;;6240237;22;20016;-62
2021/11/15 01:47:00;;;;;;;10.35;4.97;;;9.70;99.90;;;;;;6239703;23;20419;-62
2021/11/15 01:49:26;;;;;;;9.60;4.13;;;9.60;99.90;;;;;;6241713;22;20549;-63
2021/11/15 01:51:51;;;;;;;11.73;5.30;;;9.60;99.90;;;;;;6240001;22;20032;-63
2021/11/15 01:54:17;;;;;;;13.65;6.15;;;9.60;99.90;;;;;;6241493;22;20130;-61
2021/11/15 01:56:43;;;;;;;13.90;5.13;;;9.70;99.90;;;;;;6239939;22;20046;-62
2021/11/15 01:59:08;;;;;;;14.95;6.15;;;9.70;99.90;;;;;;6241305;22;20013;-63
2021/11/15 02:01:34;;;;;;;13.52;6.03;;;9.70;99.90;;;;;;6239576;22;20032;-61
2021/11/15 02:04:00;;;;;;;11.63;5.25;;;9.60;99.90;;;;;;6241258;22;20004;-61
2021/11/15 02:06:27;;;;;;;12.13;5.60;;;9.70;99.90;;;;;;6241581;22;20091;-62
2021/11/15 02:08:52;;;;;;;11.80;5.68;;;9.60;99.90;;;;;;6240528;22;20008;-63
2021/11/15 02:11:18;;;;;;;12.15;5.25;;;9.60;99.90;;;;;;6241057;22;20008;-62
2021/11/15 02:13:45;;;;;;;10.00;4.18;;;9.60;99.90;;;;;;6238415;22;20388;-62
2021/11/15 02:16:11;;;;;;;9.88;4.88;;;9.60;99.90;;;;;;6241179;22;20079;-62
2021/11/15 02:18:37;;;;;;;14.57;5.43;;;9.60;99.90;;;;;;6239890;22;20036;-63
2021/11/15 02:21:08;;;;;;;10.52;5.80;;;9.50;99.90;;;;;;6240881;22;20012;-62
2021/11/15 02:23:38;;;;;;;12.50;4.88;;;9.50;99.90;;;;;;6238406;22;20018;-63
2021/11/15 02:26:05;;;;;;;9.30;4.85;;;9.50;99.90;;;;;;6240801;22;20019;-61
2021/11/15 02:28:33;;;;;;;10.27;5.15;;;9.50;99.90;;;;;;6240164;22;20446;-63
2021/11/15 02:31:00;;;;;;;13.13;5.45;;;9.50;99.90;;;;;;6241048;22;20008;-62
2021/11/15 02:33:28;;;;;;;9.40;4.80;;;9.50;99.90;;;;;;6240814;22;20015;-63
2021/11/15 02:35:55;;;;;;;9.55;4.28;;;9.50;99.90;;;;;;6240252;22;20019;-62
2021/11/15 02:38:20;;;;;;;12.93;5.22;;;9.50;99.90;;;;;;6240903;22;20005;-62
2021/11/15 02:40:46;;;;;;;12.60;5.28;;;9.50;99.90;;;;;;6239741;22;20027;-62
2021/11/15 02:43:12;;;;;;;12.27;5.03;;;9.40;99.90;;;;;;6241023;22;20008;-63
2021/11/15 02:45:38;;;;;;;12.73;5.53;;;9.40;99.90;;;;;;6240058;22;20067;-62
2021/11/15 02:48:04;;;;;;;12.30;5.20;;;9.40;99.90;;;;;;6238966;23;20007;-62
2021/11/15 02:50:32;;;;;;;13.98;5.85;;;9.40;99.90;;;;;;6239932;22;20489;-63
2021/11/15 02:53:01;;;;;;;14.45;7.20;;;9.40;99.90;;;;;;6238975;23;20008;-61
2021/11/15 02:55:28;;;;;;;12.30;5.70;;;9.40;99.90;;;;;;6240954;22;20031;-63
2021/11/15 02:57:55;;;;;;;13.48;5.38;;;9.40;99.90;;;;;;6240206;22;20011;-63
2021/11/15 03:00:26;;;;;;;12.63;5.40;;;9.40;99.90;;;;;;6240810;22;20011;-62
2021/11/15 03:02:53;;;;;;;13.73;5.60;;;9.40;99.90;;;;;;6239803;22;20371;-62
2021/11/15 03:05:27;;;;;;;14.80;5.90;;;9.40;99.90;;;;;;6241213;22;20010;-62
2021/11/15 03:07:54;;;;;;;16.45;6.40;;;9.40;99.90;;;;;;6240281;22;20070;-62
2021/11/15 03:10:21;;;;;;;14.10;6.43;;;9.40;99.90;;;;;;6240921;22;20050;-62
2021/11/15 03:12:46;;;;;;;13.32;5.75;;;9.30;99.90;;;;;;6238454;22;20508;-63
2021/11/15 03:15:22;;;;;;;15.77;5.90;;;9.30;99.90;;;;;;6240643;22;20008;-62
2021/11/15 03:18:18;;;;;;;16.42;5.80;;;9.30;99.90;;;;;;6239048;22;20027;-63
2021/11/15 03:20:48;;;;;;;15.45;6.28;;;9.30;99.90;;;;;;6240224;22;20106;-62
2021/11/15 03:23:18;;;;;;;12.60;5.53;;;9.40;99.90;;;;;;6240715;22;20084;-64
2021/11/15 03:25:45;;;;;;;11.07;5.03;;;9.30;99.90;;;;;;6239463;22;20504;-63
2021/11/15 03:28:13;;;;;;;12.68;5.20;;;9.30;99.90;;;;;;6240561;22;20342;-61
2021/11/15 03:30:39;;;;;;;14.93;6.30;;;9.20;99.90;;;;;;6239238;22;20016;-62
2021/11/15 03:33:07;;;;;;;13.77;5.97;;;9.20;99.90;;;;;;6239824;22;20022;-62
2021/11/15 03:35:33;;;;;;;12.73;5.38;;;9.20;99.90;;;;;;6239479;22;20013;-62
2021/11/15 03:37:59;;;;;;;8.75;5.20;;;9.30;99.90;;;;;;6240560;22;20004;-63
2021/11/15 03:40:26;;;;;;;14.20;5.65;;;9.20;99.90;;;;;;6240566;22;20439;-62
2021/11/15 03:42:59;;;;;;;10.82;4.80;;;9.20;99.90;;;;;;6238958;22;20004;-62
2021/11/15 03:45:26;;;;;;;12.48;4.85;;;9.20;99.90;;;;;;6240290;22;20011;-63
2021/11/15 03:47:52;;;;;;;10.40;4.53;;;9.20;99.90;;;;;;6237343;22;20000;-62
2021/11/15 03:50:18;;;;;;;16.42;5.50;;;9.20;99.90;;;;;;6240731;22;20341;-63
2021/11/15 03:52:44;;;;;;;13.55;5.05;;;9.20;99.90;;;;;;6239565;22;20083;-62
2021/11/15 03:55:12;;;;;;;11.23;5.03;;;9.20;99.90;;;;;;6240632;22;20378;-63
2021/11/15 03:57:38;;;;;;;13.15;4.75;;;9.10;99.90;;;;;;6239545;22;20012;-62
2021/11/15 04:00:08;;;;;;;10.73;4.88;;;9.20;99.90;;;;;;6240599;22;20362;-62
2021/11/15 04:02:34;;;;;;;10.77;4.90;;;9.10;99.90;;;;;;6239732;22;20087;-63
2021/11/15 04:05:03;;;;;;;11.98;4.82;;;9.10;99.90;;;;;;6242386;22;20009;-62
2021/11/15 04:07:37;;;;;;;12.75;5.38;;;9.10;99.90;;;;;;6241932;22;20025;-64
2021/11/15 04:10:08;;;;;;;10.68;5.18;;;9.10;99.90;;;;;;6242749;22;20028;-62
2021/11/15 04:12:34;;;;;;;12.68;4.68;;;9.00;99.90;;;;;;6241302;22;20074;-63
2021/11/15 04:14:59;;;;;;;15.35;5.00;;;9.00;99.90;;;;;;6242668;22;20070;-63
2021/11/15 04:17:25;;;;;;;12.02;5.22;;;9.00;99.90;;;;;;6242657;22;20011;-63
2021/11/15 04:19:52;;;;;;;10.93;5.07;;;9.10;99.90;;;;;;6241563;22;20427;-62
2021/11/15 04:22:19;;;;;;;12.15;5.10;;;9.10;99.90;;;;;;6240452;23;20012;-62
2021/11/15 04:24:44;;;;;;;11.10;5.30;;;9.10;99.90;;;;;;6241318;22;20020;-62
2021/11/15 04:27:10;;;;;;;10.18;4.07;;;9.10;99.90;;;;;;6242383;22;20020;-62
2021/11/15 04:29:36;;;;;;;13.00;5.28;;;9.10;99.90;;;;;;6241204;22;20008;-63
2021/11/15 04:32:06;;;;;;;11.38;5.20;;;9.00;99.90;;;;;;6242259;22;20446;-62
2021/11/15 04:34:33;;;;;;;13.23;5.67;;;9.00;99.90;;;;;;6240969;22;20016;-62
2021/11/15 04:36:59;;;;;;;12.30;5.35;;;9.00;99.90;;;;;;6241923;22;20447;-63
2021/11/15 04:39:25;;;;;;;11.57;4.68;;;9.10;99.90;;;;;;6242460;22;20008;-63
2021/11/15 04:41:51;;;;;;;11.00;5.13;;;9.00;99.90;;;;;;6239354;22;20494;-62
2021/11/15 04:44:16;;;;;;;9.13;4.68;;;9.00;99.90;;;;;;6242526;22;20008;-64
2021/11/15 04:46:42;;;;;;;13.65;5.88;;;9.10;99.90;;;;;;6241339;22;20012;-63
2021/11/15 04:49:08;;;;;;;10.23;5.53;;;9.00;99.90;;;;;;6242388;22;20142;-62
2021/11/15 04:51:34;;;;;;;10.88;5.60;;;9.00;99.90;;;;;;6240618;22;20401;-62
2021/11/15 04:54:00;;;;;;;12.73;4.97;;;9.00;99.90;;;;;;6242120;22;20004;-62
2021/11/15 04:56:26;;;;;;;12.23;5.10;;;9.10;99.90;;;;;;6242466;22;20438;-62
2021/11/15 04:58:53;;;;;;;11.00;5.18;;;9.00;99.90;;;;;;6241429;22;20636;-62
2021/11/15 05:01:19;;;;;;;16.45;5.35;;;9.00;99.90;;;;;;6242613;22;20087;-62
2021/11/15 05:03:45;;;;;;;13.23;6.07;;;9.10;99.90;;;;;;6241436;22;20016;-62
2021/11/15 05:06:11;;;;;;;18.08;6.28;;;9.10;99.90;;;;;;6242579;22;20015;-62
2021/11/15 05:08:36;;;;;;;12.55;5.65;;;9.00;99.90;;;;;;6241095;22;20351;-63
2021/11/15 05:11:02;;;;;;;13.15;5.15;;;9.00;99.90;;;;;;6242026;22;20016;-63
2021/11/15 05:13:28;;;;;;;13.48;5.88;;;8.90;99.90;;;;;;6241715;22;20008;-62
2021/11/15 05:15:54;;;;;;;14.13;6.72;;;8.90;99.90;;;;;;6240783;22;20407;-62
2021/11/15 05:18:20;;;;;;;13.90;5.88;;;8.90;99.90;;;;;;6242435;22;20435;-62
2021/11/15 05:20:45;;;;;;;12.98;5.35;;;8.90;99.90;;;;;;6240739;22;20036;-62
2021/11/15 05:23:11;;;;;;;14.35;5.85;;;8.90;99.90;;;;;;6242109;22;20083;-62
2021/11/15 05:25:36;;;;;;;13.15;5.35;;;8.90;99.90;;;;;;6241489;22;20350;-63
2021/11/15 05:28:02;;;;;;;12.25;5.40;;;8.90;99.90;;;;;;6242171;22;20007;-64
2021/11/15 05:30:28;;;;;;;15.27;7.00;;;8.80;99.90;;;;;;6241940;22;20675;-63
2021/11/15 05:32:55;;;;;;;12.57;6.43;;;8.80;99.90;;;;;;6241018;23;20004;-63
2021/11/15 05:35:22;;;;;;;15.93;6.72;;;8.80;99.90;;;;;;6241183;23;20030;-62
2021/11/15 05:37:49;;;;;;;17.42;6.60;;;8.90;99.90;;;;;;6239387;23;20022;-64
2021/11/15 05:40:15;;;;;;;11.82;5.85;;;8.80;99.90;;;;;;6214424;23;20048;-62
2021/11/15 05:42:41;;;;;;;13.10;5.97;;;8.90;99.90;;;;;;6240691;23;20338;-63
2021/11/15 05:45:08;;;;;;;15.55;5.75;;;8.80;99.90;;;;;;6241374;23;20015;-64
2021/11/15 05:47:34;;;;;;;16.55;6.75;;;8.90;99.90;;;;;;6240890;23;20009;-62
2021/11/15 05:50:00;;;;;;;18.10;7.05;;;8.90;99.90;;;;;;6241483;22;20027;-63
2021/11/15 05:52:25;;;;;;;16.38;6.97;;;8.90;99.90;;;;;;6241516;23;20026;-62
2021/11/15 05:54:52;;;;;;;16.63;5.97;;;8.80;99.90;;;;;;6240978;23;20572;-62
2021/11/15 05:57:18;;;;;;;14.73;6.68;;;8.90;99.90;;;;;;6215321;23;20042;-62
2021/11/15 05:59:44;;;;;;;17.52;6.72;;;8.80;99.90;;;;;;6240171;23;20032;-61
2021/11/15 06:02:11;;;;;;;16.63;6.97;;;8.80;99.90;;;;;;6242271;23;20461;-62
2021/11/15 06:04:36;;;;;;;14.00;6.40;;;8.90;99.90;;;;;;6238713;23;20012;-62
2021/11/15 06:07:02;;;;;;;14.20;6.85;;;8.80;99.90;;;;;;6237084;23;20406;-61
2021/11/15 06:09:28;;;;;;;13.55;6.63;;;8.80;99.90;;;;;;6242852;23;20370;-63
2021/11/15 06:11:55;;;;;;;15.00;7.32;;;8.80;99.90;;;;;;6240728;22;20012;-66
2021/11/15 06:14:20;;;;;;;16.17;6.65;;;8.80;99.90;;;;;;6241310;23;20016;-62
2021/11/15 06:16:46;;;;;;;20.08;7.47;;;8.70;99.90;;;;;;6239536;23;20332;-62
2021/11/15 06:19:12;;;;;;;13.93;6.63;;;8.80;99.90;;;;;;6239873;23;20008;-64
2021/11/15 06:21:38;;;;;;;14.07;6.10;;;8.80;99.90;;;;;;6239237;22;20505;-64
2021/11/15 06:24:04;;;;;;;15.82;6.32;;;8.80;99.90;;;;;;6214915;23;20032;-62
2021/11/15 06:26:30;;;;;;;16.50;6.88;;;8.80;99.90;;;;;;6240301;23;20035;-69
2021/11/15 06:28:56;;;;;;;14.70;6.93;;;8.80;99.90;;;;;;6241637;23;20011;-62
2021/11/15 06:31:22;;;;;;;15.13;6.85;;;8.70;99.90;;;;;;6239684;22;20008;-67
2021/11/15 06:33:52;;;;;;;17.98;7.45;;;8.80;99.90;;;;;;6238733;23;20022;-63
2021/11/15 06:36:19;;;;;;;15.73;6.45;;;8.70;99.90;;;;;;6238829;23;20091;-62
2021/11/15 06:38:45;;;;;;;16.80;7.18;;;8.80;99.90;;;;;;6238030;23;20012;-62
2021/11/15 06:41:10;;;;;;;15.10;6.70;;;8.80;99.90;;;;;;6241077;22;20043;-63
2021/11/15 06:43:36;;;;;;;14.25;7.35;;;8.70;99.90;;;;;;6239695;23;20073;-62
2021/11/15 06:46:02;;;;;;;20.20;7.88;;;8.70;99.90;;;;;;6239450;23;20015;-62
2021/11/15 06:48:30;;;;;;;18.50;8.20;;;8.70;99.90;;;;;;6238231;23;20443;-63
2021/11/15 06:50:56;;;;;;;19.50;8.30;;;8.70;99.90;;;;;;6240517;22;20034;-62
2021/11/15 06:53:22;;;;;;;16.88;7.45;;;8.70;99.90;;;;;;6241074;22;20000;-62
2021/11/15 06:55:47;;;;;;;19.88;7.22;;;8.70;99.90;;;;;;6240378;22;20026;-63
2021/11/15 06:58:13;;;;;;;17.45;7.15;;;8.80;99.90;;;;;;6238343;22;20351;-61
2021/11/15 07:00:39;;;;;;;13.40;6.32;;;8.70;99.90;;;;;;6236320;22;20095;-62
2021/11/15 07:03:04;;;;;;;13.68;6.65;;;8.70;99.90;;;;;;6237440;22;20011;-61
2021/11/15 07:05:30;;;;;;;16.25;7.13;;;8.70;99.90;;;;;;6234390;22;20012;-66
2021/11/15 07:07:56;;;;;;;14.13;6.05;;;8.70;99.90;;;;;;6238010;22;20027;-62
2021/11/15 07:10:22;;;;;;;16.05;7.25;;;8.70;99.90;;;;;;6235458;22;20324;-63
2021/11/15 07:12:48;;;;;;;16.02;6.45;;;8.60;99.90;;;;;;6236584;22;20023;-62
2021/11/15 07:15:15;;;;;;;20.73;7.18;;;8.60;99.90;;;;;;6235975;23;20008;-63
2021/11/15 07:17:41;;;;;;;19.48;7.13;;;8.70;99.90;;;;;;6236500;22;20027;-62
2021/11/15 07:20:08;;;;;;;18.60;7.32;;;8.60;99.90;;;;;;6237403;22;20004;-63
2021/11/15 07:22:34;;;;;;;17.95;6.78;;;8.60;99.90;;;;;;6234591;22;20350;-62
2021/11/15 07:25:01;;;;;;;16.27;6.70;;;8.60;99.90;;;;;;6237558;22;20632;-64
2021/11/15 07:27:27;;;;;;;14.70;6.30;;;8.70;99.90;;;;;;6237476;22;20012;-62
2021/11/15 07:29:53;;;;;;;19.05;7.18;;;8.70;99.90;;;;;;6236387;22;20008;-62
2021/11/15 07:32:19;;;;;;;15.00;5.80;;;8.70;99.90;;;;;;6237018;22;20019;-62
2021/11/15 07:34:44;;;;;;;16.33;6.60;;;8.70;99.90;;;;;;6236334;22;20520;-62
2021/11/15 07:37:10;;;;;;;14.13;5.97;;;8.70;99.90;;;;;;6237162;22;20097;-62
2021/11/15 07:39:43;;;;;;;19.83;7.13;;;8.70;99.90;;;;;;6236358;22;20012;-62
2021/11/15 07:42:13;;;;;;;14.77;6.55;;;8.70;99.90;;;;;;6237432;22;20012;-62
2021/11/15 07:44:39;;;;;;;16.75;6.13;;;8.70;99.90;;;;;;6236168;22;20066;-62
2021/11/15 07:47:05;;;;;;;16.08;6.85;;;8.70;99.90;;;;;;6235397;23;20012;-63
2021/11/15 07:49:32;;;;;;;16.63;6.50;;;8.70;99.90;;;;;;6236462;22;20016;-61
2021/11/15 07:51:57;;;;;;;14.40;6.70;;;8.70;99.90;;;;;;6237431;22;20518;-61
2021/11/15 07:54:23;;;;;;;16.50;6.57;;;8.70;99.90;;;;;;6237454;22;20039;-62
2021/11/15 07:56:49;;;;;;;17.42;6.55;;;8.70;99.90;;;;;;6236330;22;20070;-62
2021/11/15 07:59:15;;;;;;;17.13;6.53;;;8.70;99.90;;;;;;6235774;23;20004;-62
2021/11/15 08:01:41;;;;;;;19.15;7.18;;;8.70;99.90;;;;;;6234483;22;20714;-62
2021/11/15 08:04:06;;;;;;;15.32;7.25;;;8.70;99.90;;;;;;6237075;22;20488;-61
2021/11/15 08:06:32;;;;;;;12.88;6.57;;;8.60;99.90;;;;;;6236572;22;20008;-63
2021/11/15 08:08:58;;;;;;;18.73;6.95;;;8.60;99.90;;;;;;6235629;23;20051;-62
2021/11/15 08:11:28;;;;;;;17.05;6.43;;;8.70;99.90;;;;;;6237238;22;20578;-61
2021/11/15 08:13:54;;;;;;;;;;;8.70;99.90;;;;;;6235149;23;20005;-62
2021/11/15 08:16:19;;;;;;;15.98;7.13;;;8.70;99.90;;;;;;6237624;22;19912;-62
2021/11/15 08:18:46;;;;;;;17.92;6.95;;;8.70;99.90;;;;;;6236329;22;20020;-62
2021/11/15 08:21:13;;;;;;;18.67;7.32;;;8.70;99.90;;;;;;6236912;22;20091;-62
2021/11/15 08:23:40;;;;;;;17.42;7.40;;;8.70;99.90;;;;;;6234516;22;20012;-62
2021/11/15 08:26:28;;;;;;;15.35;6.60;;;8.70;99.90;;;;;;6236246;22;20024;-62
2021/11/15 08:29:03;;;;;;;15.70;6.97;;;8.70;99.90;;;;;;6234621;22;20012;-62
2021/11/15 08:31:29;;;;;;;17.00;7.47;;;8.70;99.90;;;;;;6237494;22;20008;-62
2021/11/15 08:33:55;;;;;;;14.07;6.47;;;8.70;99.90;;;;;;6235698;22;20016;-62
2021/11/15 08:36:22;;;;;;;16.45;8.07;;;8.70;99.90;;;;;;6236795;22;20008;-62
2021/11/15 08:38:53;;;;;;;17.33;7.40;;;8.80;99.90;;;;;;6236169;22;20131;-63
2021/11/15 08:41:22;;;;;;;17.50;7.03;;;8.70;99.90;;;;;;6236465;22;20600;-62
2021/11/15 08:43:48;;;;;;;16.35;6.95;;;8.70;99.90;;;;;;6234153;22;20016;-62
2021/11/15 08:46:15;;;;;;;17.48;6.88;;;8.70;99.90;;;;;;6237354;22;20012;-62
2021/11/15 08:48:43;;;;;;;15.77;6.70;;;8.70;99.90;;;;;;6235764;22;20101;-63
2021/11/15 08:51:12;;;;;;;17.58;7.18;;;8.60;99.90;;;;;;6238529;22;20094;-62
2021/11/15 08:53:38;;;;;;;16.50;6.68;;;8.60;99.90;;;;;;6237795;22;20350;-62
2021/11/15 08:56:05;;;;;;;21.33;7.97;;;8.60;99.90;;;;;;6238792;22;20012;-62
2021/11/15 08:58:30;;;;;;;13.45;6.47;;;8.60;99.90;;;;;;6238958;22;20470;-63
2021/11/15 09:00:57;;;;;;;20.45;6.95;;;8.60;99.90;;;;;;6237945;22;20015;-62
2021/11/15 09:03:22;;;;;;;20.52;7.70;;;8.60;99.90;;;;;;6238969;22;20008;-62
2021/11/15 09:05:50;;;;;;;15.15;6.40;;;8.70;99.90;;;;;;6237446;22;20066;-61
2021/11/15 09:08:16;;;;;;;18.08;7.15;;;8.70;99.90;;;;;;6236575;23;20012;-62
2021/11/15 09:10:42;;;;;;;15.00;6.60;;;8.70;99.90;;;;;;6235648;22;20022;-62
2021/11/15 09:13:08;;;;;;;19.73;7.72;;;8.70;99.90;;;;;;6238010;22;20016;-62
2021/11/15 09:15:33;;;;;;;15.48;6.82;;;8.70;99.90;;;;;;6237687;22;20090;-62
2021/11/15 09:17:59;;;;;;;14.43;6.30;;;8.70;99.90;;;;;;6236665;23;20077;-61
2021/11/15 09:20:25;;;;;;;15.00;6.28;;;8.70;99.90;;;;;;6238777;22;20386;-62
2021/11/15 09:22:52;;;;;;;16.00;6.95;;;8.80;99.90;;;;;;6237086;22;20034;-63
2021/11/15 09:25:18;;;;;;;15.20;6.63;;;8.80;99.90;;;;;;6238443;22;20091;-63
2021/11/15 09:27:43;;;;;;;15.00;6.38;;;8.80;99.90;;;;;;6237303;22;20011;-62
2021/11/15 09:30:11;;;;;;;17.02;7.18;;;8.70;99.90;;;;;;6238438;22;20005;-62
2021/11/15 09:32:38;;;;;;;15.75;6.85;;;8.70;99.90;;;;;;6235311;22;20034;-63
2021/11/15 09:35:05;;;;;;;15.20;6.20;;;8.70;99.90;;;;;;6238251;22;20011;-61
2021/11/15 09:37:30;;;;;;;14.25;6.05;;;8.70;99.90;;;;;;6238497;22;20024;-62
2021/11/15 09:39:56;;;;;;;16.60;6.60;;;8.70;99.90;;;;;;6237181;22;20115;-63
2021/11/15 09:42:22;;;;;;;19.80;6.97;;;8.70;99.90;;;;;;6238573;22;20394;-63
2021/11/15 09:44:48;;;;;;;16.88;6.75;;;8.70;99.90;;;;;;6237353;22;20032;-62
2021/11/15 09:47:15;;;;;;;15.68;6.38;;;8.70;99.90;;;;;;6237679;22;20015;-62
2021/11/15 09:49:41;;;;;;;14.57;6.30;;;8.70;99.90;;;;;;6236102;22;20447;-62
2021/11/15 09:52:09;;;;;;;14.30;5.95;;;8.70;99.90;;;;;;6238131;22;20066;-62
2021/11/15 09:54:35;;;;;;;15.13;6.15;;;8.70;99.90;;;;;;6237176;22;20016;-61
2021/11/15 09:57:01;;;;;;;15.95;6.35;;;8.70;99.90;;;;;;6238113;22;20031;-62
2021/11/15 09:59:29;;;;;;;15.63;6.60;;;8.60;99.90;;;;;;6238077;22;20004;-62
2021/11/15 10:01:56;;;;;;;16.17;6.85;;;8.60;99.90;;;;;;6237452;22;20012;-62
2021/11/15 10:04:22;;;;;;;15.82;6.85;;;8.60;99.90;;;;;;6237623;22;20070;-63
2021/11/15 10:06:49;;;;;;;16.88;6.15;;;8.60;99.90;;;;;;6237397;22;20461;-62
2021/11/15 10:09:25;;;;;;;16.08;6.82;;;8.60;99.90;;;;;;6238051;22;20004;-61
2021/11/15 10:11:51;;;;;;;19.02;7.10;;;8.60;99.90;;;;;;6236516;22;20095;-63
2021/11/15 10:14:17;;;;;;;16.55;6.22;;;8.60;99.90;;;;;;6238665;22;20054;-62
2021/11/15 10:16:56;;;;;;;14.30;6.50;;;8.60;99.90;;;;;;6237551;22;20035;-61
2021/11/15 10:19:23;;;;;;;21.77;7.57;;;8.50;99.90;;;;;;6238964;22;20612;-62
2021/11/15 10:21:55;;;;;;;19.52;6.90;;;8.50;99.90;;;;;;6234226;22;20012;-62
2021/11/15 10:24:35;;;;;;;17.25;5.82;;;8.50;99.90;;;;;;6236240;23;20552;-62
2021/11/15 10:27:06;;;;;;;15.85;6.78;;;8.50;99.90;;;;;;6237128;22;20009;-62
2021/11/15 10:29:34;;;;;;;16.38;7.22;;;8.50;99.90;;;;;;6236842;22;20099;-62
2021/11/15 10:32:11;;;;;;;17.65;6.75;;;8.50;99.90;;;;;;6237485;22;20481;-62
2021/11/15 10:34:45;;;;;;;14.60;7.25;;;8.40;99.90;;;;;;6236564;22;20050;-63
2021/11/15 10:37:26;;;;;;;17.48;7.45;;;8.40;99.90;;;;;;6237591;22;20019;-62
2021/11/15 10:40:03;;;;;;;21.35;7.57;;;8.50;99.90;;;;;;6236254;22;20387;-63
2021/11/15 10:42:40;;;;;;;15.82;5.93;;;8.40;99.90;;;;;;6237755;22;20022;-64
2021/11/15 10:45:10;;;;;;;16.33;6.47;;;8.30;99.90;;;;;;6235335;23;20012;-62
2021/11/15 10:47:42;;;;;;;16.20;6.93;;;8.30;99.90;;;;;;6236467;22;20020;-62
2021/11/15 10:50:25;;;;;;;21.00;7.63;;;8.30;99.90;;;;;;6237786;22;20447;-62
2021/11/15 10:53:18;;;;;;;19.77;7.25;;;8.20;99.90;;;;;;6234977;22;20012;-62
2021/11/15 10:56:06;;;;;;;20.58;7.25;;;8.20;99.90;;;;;;6236429;22;20019;-62
2021/11/15 10:59:00;;;;;;;21.90;7.47;;;8.20;99.90;;;;;;6236205;22;20039;-68
2021/11/15 11:01:32;;;;;;;16.45;6.47;;;8.30;99.90;;;;;;6217529;22;20016;-62
2021/11/15 11:04:12;;;;;;;18.23;6.97;;;8.30;99.90;;;;;;6232704;23;20020;-63
2021/11/15 11:07:04;;;;;;;18.27;7.22;;;8.40;99.90;;;;;;6236030;22;20450;-64
2021/11/15 11:09:38;;;;;;;17.02;6.75;;;8.40;99.90;;;;;;6236067;22;20091;-62
2021/11/15 11:12:18;;;;;;;18.10;7.18;;;8.40;99.90;;;;;;6235206;22;20343;-62
2021/11/15 11:14:45;;;;;;;16.45;6.68;;;8.40;99.90;;;;;;6229231;22;20020;-62
2021/11/15 11:17:11;;;;;;;18.42;7.55;;;8.40;99.90;;;;;;6233968;22;20070;-62
2021/11/15 11:20:27;;;;;;;22.42;7.25;;;8.40;99.90;;;;;;6232945;22;20058;-64
2021/11/15 11:26:23;;;;;;;19.77;6.97;;;8.40;99.90;;;;;;6151235;22;20018;-62
2021/11/15 11:28:54;;;;;;;19.48;7.57;;;8.40;99.90;;;;;;6233964;22;20083;-61
2021/11/15 11:31:21;;;;;;;21.15;6.88;;;8.40;99.90;;;;;;6234438;22;20338;-62
2021/11/15 11:33:48;;;;;;;16.63;6.95;;;8.40;99.90;;;;;;6233672;22;20035;-61
2021/11/15 11:36:15;;;;;;;18.65;7.07;;;8.40;99.90;;;;;;6234451;22;20446;-62
2021/11/15 11:38:42;;;;;;;20.02;7.43;;;8.40;99.90;;;;;;6233883;22;20062;-62
2021/11/15 11:41:09;;;;;;;19.27;6.90;;;8.40;99.90;;;;;;6234462;22;20446;-63
2021/11/15 11:43:34;;;;;;;20.10;7.47;;;8.50;99.90;;;;;;6231699;22;20019;-62
2021/11/15 11:46:00;;;;;;;18.55;7.07;;;8.40;99.90;;;;;;6234546;22;20012;-62
2021/11/15 11:48:27;;;;;;;19.85;6.00;;;8.50;99.90;;;;;;6231975;23;20391;-63
2021/11/15 11:50:56;;;;;;;21.08;6.43;;;8.50;99.90;;;;;;6256220;22;20079;-62
2021/11/15 11:53:29;;;;;;;17.98;6.85;;;8.40;99.90;;;;;;6235343;22;20946;-62
2021/11/15 11:55:57;;;;;;;15.18;5.63;;;8.40;99.90;;;;;;6234122;22;20019;-63
2021/11/15 11:58:31;;;;;;;14.77;5.95;;;8.30;99.90;;;;;;6236113;22;20085;-62
2021/11/15 12:01:23;;;;;;;16.38;6.45;;;8.30;99.90;;;;;;6232700;22;20009;-62
2021/11/15 12:04:18;;;;;;;18.65;6.32;;;8.20;99.90;;;;;;6224588;22;20545;-62
2021/11/15 12:06:46;;;;;;;21.50;6.68;;;8.20;99.90;;;;;;6233917;22;20020;-62
2021/11/15 12:09:16;;;;;;;19.58;7.28;;;8.20;99.90;;;;;;6232726;23;20067;-62
2021/11/15 12:11:59;;;;;;;15.90;6.28;;;8.10;99.90;;;;;;6234149;22;20023;-62
2021/11/15 12:14:35;;;;;;;15.18;4.97;;;8.10;99.90;;;;;;6237102;22;20020;-62
2021/11/15 12:17:16;;;;;;;13.95;5.57;;;8.10;99.90;;;;;;6236598;22;20100;-61
2021/11/15 12:19:48;;;;;;;18.73;5.55;;;8.10;99.90;;;;;;6235691;22;20062;-63
2021/11/15 12:22:20;;;;;;;19.08;6.25;;;8.10;99.90;;;;;;6236767;22;20435;-62
2021/11/15 12:25:04;;;;;;;18.25;6.70;;;8.00;99.90;;;;;;6234978;22;20091;-62
2021/11/15 12:27:55;;;;;;;18.65;5.65;;;8.10;99.90;;;;;;6239390;22;20039;-62
2021/11/15 12:30:34;;;;;;;18.50;6.47;;;8.10;99.90;;;;;;6237926;22;20023;-62
2021/11/15 12:33:21;;;;;;;18.45;5.75;;;8.00;99.90;;;;;;6237585;22;20085;-62
2021/11/15 12:35:55;;;;;;;17.33;5.68;;;8.00;99.90;;;;;;6238108;22;20523;-63
2021/11/15 12:38:50;;;;;;;20.13;6.82;;;8.10;99.90;;;;;;6238864;22;20008;-62
2021/11/15 12:41:16;;;;;;;17.58;5.93;;;8.10;99.90;;;;;;6237715;22;20014;-62
2021/11/15 12:46:54;;;;;;;14.50;5.43;;;8.00;99.90;;;;;;6238563;22;20018;-63
2021/11/15 12:49:22;;;;;;;15.05;5.07;;;8.10;99.90;;;;;;6236533;23;20579;-62
2021/11/15 12:52:07;;;;;;;15.95;5.53;;;8.10;99.90;;;;;;6235305;22;20016;-62
2021/11/15 12:54:46;;;;;;;18.08;6.20;;;8.00;99.90;;;;;;6237865;22;20032;-64
2021/11/15 12:57:33;;;;;;;13.13;5.53;;;8.10;99.90;;;;;;6238786;22;20062;-61
2021/11/15 13:00:23;;;;;;;16.42;5.28;;;8.10;99.90;;;;;;6236672;22;20004;-62
2021/11/15 13:03:18;;;;;;;14.68;5.53;;;8.10;99.90;;;;;;6225442;22;20016;-62